createdAt,value
2019-04-07T00:00:10.603Z,9.20
2019-04-07T00:02:48.525Z,9.20
2019-04-07T00:05:25.654Z,9.20
2019-04-07T00:08:03.167Z,9.10
2019-04-07T00:10:41.329Z,9.10
2019-04-07T00:13:18.391Z,9.10
2019-04-07T00:15:55.763Z,9.10
2019-04-07T00:18:33.324Z,9.00
2019-04-07T00:21:11.289Z,9.00
2019-04-07T00:23:48.388Z,9.00
2019-04-07T00:26:25.892Z,9.00
2019-04-07T00:29:03.423Z,8.90
2019-04-07T00:31:41.549Z,8.90
2019-04-07T00:34:18.455Z,8.90
2019-04-07T00:36:55.962Z,8.80
2019-04-07T00:39:33.600Z,8.80
2019-04-07T00:42:11.419Z,8.70
2019-04-07T00:44:48.597Z,8.60
2019-04-07T00:47:26.156Z,8.50
2019-04-07T00:50:04.023Z,8.40
2019-04-07T00:52:41.362Z,8.30
2019-04-07T00:55:18.970Z,8.20
2019-04-07T00:57:57.156Z,8.20
2019-04-07T01:00:34.645Z,8.10
2019-04-07T01:03:12.291Z,8.10
2019-04-07T01:05:49.566Z,8.10
2019-04-07T01:08:27.164Z,8.00
2019-04-07T01:11:04.739Z,8.00
2019-04-07T01:13:42.767Z,8.00
2019-04-07T01:16:19.936Z,7.90
2019-04-07T01:18:57.941Z,7.90
2019-04-07T01:21:34.897Z,7.80
2019-04-07T01:24:12.461Z,7.80
2019-04-07T01:26:50.052Z,7.80
2019-04-07T01:29:27.689Z,7.80
2019-04-07T01:32:06.003Z,7.70
2019-04-07T01:34:42.890Z,7.70
2019-04-07T01:37:20.952Z,7.70
2019-04-07T01:39:58.114Z,7.70
2019-04-07T01:42:41.119Z,7.70
2019-04-07T01:45:39.145Z,7.70
2019-04-07T01:48:26.843Z,7.70
2019-04-07T01:51:23.767Z,7.60
2019-04-07T01:54:29.759Z,7.60
2019-04-07T01:57:15.801Z,7.60
2019-04-07T02:00:22.717Z,7.50
2019-04-07T02:03:23.119Z,7.50
2019-04-07T02:06:31.209Z,7.50
2019-04-07T02:09:16.128Z,7.40
2019-04-07T02:12:14.733Z,7.40
2019-04-07T02:15:09.736Z,7.30
2019-04-07T02:18:12.375Z,7.20
2019-04-07T02:21:08.624Z,7.20
2019-04-07T02:24:04.866Z,7.10
2019-04-07T02:27:00.923Z,7.00
2019-04-07T02:29:57.910Z,7.00
2019-04-07T02:33:06.568Z,6.90
2019-04-07T02:36:15.584Z,6.90
2019-04-07T02:38:56.272Z,6.90
2019-04-07T02:41:42.097Z,6.80
2019-04-07T02:44:37.318Z,6.80
2019-04-07T02:47:41.881Z,6.70
2019-04-07T02:50:36.945Z,6.70
2019-04-07T02:53:25.286Z,6.70
2019-04-07T02:56:25.160Z,6.60
2019-04-07T02:59:12.897Z,6.60
2019-04-07T03:02:05.777Z,6.60
2019-04-07T03:05:08.225Z,6.60
2019-04-07T03:07:49.201Z,6.60
2019-04-07T03:10:55.480Z,6.60
2019-04-07T03:14:12.402Z,6.60
2019-04-07T03:17:07.083Z,6.50
2019-04-07T03:20:00.665Z,6.50
2019-04-07T03:22:56.124Z,6.40
2019-04-07T03:25:55.417Z,6.40
2019-04-07T03:28:40.007Z,6.40
2019-04-07T03:31:36.535Z,6.40
2019-04-07T03:34:36.401Z,6.40
2019-04-07T03:37:34.190Z,6.40
2019-04-07T03:40:20.878Z,6.30
2019-04-07T03:43:07.247Z,6.30
2019-04-07T03:46:14.211Z,6.30
2019-04-07T03:48:59.949Z,6.20
2019-04-07T03:51:56.106Z,6.20
2019-04-07T03:54:52.718Z,6.30
2019-04-07T03:57:49.271Z,6.30
2019-04-07T04:01:24.074Z,6.30
2019-04-07T04:04:24.154Z,6.20
2019-04-07T04:07:28.439Z,6.00
2019-04-07T04:10:05.262Z,5.90
2019-04-07T04:13:01.379Z,5.80
2019-04-07T04:15:53.552Z,5.70
2019-04-07T04:18:31.049Z,5.60
2019-04-07T04:21:09.091Z,5.60
2019-04-07T04:23:46.059Z,5.60
2019-04-07T04:26:23.814Z,5.60
2019-04-07T04:29:02.452Z,5.60
2019-04-07T04:31:38.961Z,5.60
2019-04-07T04:34:17.343Z,5.50
2019-04-07T04:36:54.527Z,5.50
2019-04-07T04:39:31.924Z,5.50
2019-04-07T04:42:10.349Z,5.40
2019-04-07T04:44:47.754Z,5.40
2019-04-07T04:47:25.213Z,5.40
2019-04-07T04:50:02.531Z,5.40
2019-04-07T04:52:40.858Z,5.40
2019-04-07T04:55:17.381Z,5.50
2019-04-07T04:57:54.901Z,5.50
2019-04-07T05:00:32.480Z,5.50
2019-04-07T05:03:10.080Z,5.60
2019-04-07T05:05:47.810Z,5.60
2019-04-07T05:08:25.875Z,5.70
2019-04-07T05:11:03.115Z,5.70
2019-04-07T05:13:41.137Z,5.80
2019-04-07T05:16:18.495Z,5.80
2019-04-07T05:18:55.698Z,5.80
2019-04-07T05:21:33.043Z,5.90
2019-04-07T05:24:11.347Z,6.00
2019-04-07T05:26:48.145Z,6.00
2019-04-07T05:29:25.864Z,6.00
2019-04-07T05:32:03.233Z,6.00
2019-04-07T05:34:41.229Z,6.10
2019-04-07T05:37:18.807Z,6.10
2019-04-07T05:39:56.533Z,6.20
2019-04-07T05:42:33.336Z,6.30
2019-04-07T05:45:11.551Z,6.40
2019-04-07T05:47:50.461Z,6.50
2019-04-07T05:50:27.450Z,6.60
2019-04-07T05:53:04.160Z,6.70
2019-04-07T05:55:41.027Z,6.80
2019-04-07T05:58:18.886Z,7.00
2019-04-07T06:00:57.005Z,7.10
2019-04-07T06:03:38.701Z,7.20
2019-04-07T06:06:11.498Z,7.40
2019-04-07T06:08:49.664Z,7.50
2019-04-07T06:11:26.165Z,7.60
2019-04-07T06:14:04.164Z,7.80
2019-04-07T06:16:41.675Z,7.90
2019-04-07T06:19:19.199Z,8.00
2019-04-07T06:21:56.969Z,8.20
2019-04-07T06:24:35.005Z,8.30
2019-04-07T06:27:13.805Z,8.40
2019-04-07T06:29:48.930Z,8.50
2019-04-07T06:32:27.358Z,8.50
2019-04-07T06:35:05.123Z,8.60
2019-04-07T06:37:42.954Z,8.80
2019-04-07T06:40:21.970Z,8.90
2019-04-07T06:42:57.982Z,9.10
2019-04-07T06:45:41.657Z,9.20
2019-04-07T06:48:19.166Z,9.50
2019-04-07T06:51:18.968Z,9.70
2019-04-07T06:54:21.639Z,10.00
2019-04-07T06:57:12.231Z,10.30
2019-04-07T07:00:09.158Z,10.50
2019-04-07T07:12:28.309Z,11.20
2019-04-07T07:15:20.127Z,11.40
2019-04-07T07:18:09.007Z,11.50
2019-04-07T07:21:05.132Z,11.60
2019-04-07T07:23:47.106Z,11.80
2019-04-07T07:26:21.914Z,12.00
2019-04-07T07:28:59.172Z,12.20
2019-04-07T07:31:36.899Z,12.40
2019-04-07T07:34:14.356Z,12.50
2019-04-07T07:36:53.462Z,12.60
2019-04-07T07:39:29.562Z,12.70
2019-04-07T07:42:07.232Z,12.90
2019-04-07T07:44:44.453Z,13.00
2019-04-07T07:47:22.921Z,13.10
2019-04-07T07:49:59.727Z,13.40
2019-04-07T07:52:37.684Z,13.70
2019-04-07T07:55:15.092Z,14.10
2019-04-07T07:57:56.778Z,14.60
2019-04-07T08:00:29.677Z,15.00
2019-04-07T08:03:07.808Z,15.40
2019-04-07T08:05:45.398Z,15.70
2019-04-07T08:08:22.260Z,16.10
2019-04-07T08:11:02.401Z,16.30
2019-04-07T08:13:43.538Z,16.40
2019-04-07T08:16:15.190Z,16.50
2019-04-07T08:18:52.493Z,16.50
2019-04-07T08:21:29.933Z,16.50
2019-04-07T08:24:08.065Z,16.60
2019-04-07T08:26:45.865Z,16.80
2019-04-07T08:29:22.508Z,16.80
2019-04-07T08:32:00.086Z,16.70
2019-04-07T08:34:37.616Z,16.50
2019-04-07T08:37:15.482Z,16.30
2019-04-07T08:39:52.647Z,16.20
2019-04-07T08:42:30.331Z,16.10
2019-04-07T08:45:08.220Z,15.90
2019-04-07T08:47:47.473Z,15.80
2019-04-07T08:50:23.795Z,15.80
2019-04-07T08:53:00.560Z,15.80
2019-04-07T08:55:38.100Z,15.80
2019-04-07T08:58:25.095Z,15.80
2019-04-07T09:00:53.940Z,15.90
2019-04-07T09:03:31.423Z,15.90
2019-04-07T09:06:08.338Z,16.00
2019-04-07T09:08:46.168Z,16.10
2019-04-07T09:11:24.147Z,16.20
2019-04-07T09:14:04.202Z,16.30
2019-04-07T09:16:58.193Z,16.40
2019-04-07T09:19:58.319Z,16.50
2019-04-07T09:22:56.679Z,16.70
2019-04-07T09:25:50.190Z,16.70
2019-04-07T09:28:52.933Z,16.80
2019-04-07T09:31:42.835Z,16.90
2019-04-07T09:34:50.437Z,17.10
2019-04-07T09:37:41.700Z,17.20
2019-04-07T09:40:46.215Z,17.40
2019-04-07T09:43:30.589Z,17.60
2019-04-07T09:46:14.729Z,17.80
2019-04-07T09:49:05.505Z,17.90
2019-04-07T09:51:55.056Z,18.00
2019-04-07T09:54:46.023Z,18.00
2019-04-07T09:57:46.162Z,18.00
2019-04-07T10:00:44.418Z,18.00
2019-04-07T10:03:40.589Z,18.20
2019-04-07T10:06:45.393Z,18.40
2019-04-07T10:09:41.579Z,18.60
2019-04-07T10:12:36.187Z,18.80
2019-04-07T10:15:36.093Z,19.00
2019-04-07T10:18:38.300Z,19.30
2019-04-07T10:21:22.441Z,19.50
2019-04-07T10:24:18.540Z,19.80
2019-04-07T10:27:17.993Z,20.20
2019-04-07T10:30:06.916Z,20.40
2019-04-07T10:33:03.161Z,20.70
2019-04-07T10:35:53.930Z,20.90
2019-04-07T10:38:48.179Z,21.20
2019-04-07T10:41:44.195Z,21.50
2019-04-07T10:44:30.342Z,21.60
2019-04-07T10:47:26.178Z,21.90
2019-04-07T10:50:22.275Z,22.30
2019-04-07T10:53:12.658Z,22.60
2019-04-07T10:56:05.532Z,22.80
2019-04-07T10:59:01.777Z,23.00
2019-04-07T11:01:57.817Z,23.30
2019-04-07T11:04:45.051Z,23.40
2019-04-07T11:07:32.859Z,23.40
2019-04-07T11:10:30.558Z,23.40
2019-04-07T11:13:16.028Z,23.30
2019-04-07T11:16:11.099Z,23.10
2019-04-07T11:18:56.553Z,23.10
2019-04-07T11:21:52.953Z,23.30
2019-04-07T11:24:48.221Z,23.40
2019-04-07T11:27:33.803Z,23.70
2019-04-07T11:30:27.230Z,24.30
2019-04-07T11:33:11.522Z,25.20
2019-04-07T11:35:54.230Z,26.10
2019-04-07T11:38:53.558Z,26.90
2019-04-07T11:41:57.383Z,26.60
2019-04-07T11:44:51.857Z,27.70
2019-04-07T11:47:50.957Z,28.80
2019-04-07T11:50:38.137Z,30.40
2019-04-07T11:53:35.015Z,31.60
2019-04-07T11:56:30.765Z,32.20
2019-04-07T11:59:27.444Z,33.10
2019-04-07T12:02:26.368Z,33.40
2019-04-07T12:05:22.397Z,32.90
2019-04-07T12:08:18.231Z,32.20
2019-04-07T12:11:24.575Z,31.90
2019-04-07T12:14:27.542Z,32.30
2019-04-07T12:17:21.062Z,33.40
2019-04-07T12:20:20.683Z,34.40
2019-04-07T12:23:06.113Z,35.00
2019-04-07T12:26:04.468Z,35.70
2019-04-07T12:28:58.342Z,35.80
2019-04-07T12:31:57.846Z,36.20
2019-04-07T12:34:57.059Z,36.40
2019-04-07T12:37:57.169Z,36.60
2019-04-07T12:41:04.714Z,37.10
2019-04-07T12:43:51.805Z,37.40
2019-04-07T12:47:04.867Z,37.50
2019-04-07T12:50:04.098Z,37.60
2019-04-07T12:53:03.998Z,37.70
2019-04-07T12:56:04.829Z,37.70
2019-04-07T12:58:51.649Z,37.50
2019-04-07T13:01:54.145Z,37.10
2019-04-07T13:04:48.161Z,36.80
2019-04-07T13:07:37.553Z,36.30
2019-04-07T13:10:38.215Z,35.70
2019-04-07T13:13:21.142Z,35.70
2019-04-07T13:16:23.719Z,35.70
2019-04-07T13:19:20.212Z,35.80
2019-04-07T13:22:16.387Z,36.00
2019-04-07T13:25:11.990Z,36.20
2019-04-07T13:28:08.318Z,36.00
2019-04-07T13:31:01.777Z,34.30
2019-04-07T13:34:07.042Z,33.50
2019-04-07T13:36:58.012Z,33.60
2019-04-07T13:40:00.131Z,34.20
2019-04-07T13:42:59.090Z,35.00
2019-04-07T13:45:58.965Z,35.20
2019-04-07T13:48:52.153Z,35.30
2019-04-07T13:51:47.420Z,34.20
2019-04-07T13:54:43.618Z,33.20
2019-04-07T13:57:39.342Z,33.70
2019-04-07T14:00:35.778Z,33.70
2019-04-07T14:03:25.119Z,34.00
2019-04-07T14:06:23.712Z,34.40
2019-04-07T14:09:20.157Z,34.80
2019-04-07T14:12:12.814Z,35.10
2019-04-07T14:15:02.917Z,35.10
2019-04-07T14:17:58.798Z,35.70
2019-04-07T14:20:53.046Z,36.20
2019-04-07T14:23:47.146Z,35.80
2019-04-07T14:26:43.482Z,34.40
2019-04-07T14:29:39.493Z,34.10
2019-04-07T14:32:32.679Z,35.30
2019-04-07T14:35:39.060Z,36.40
2019-04-07T14:38:43.367Z,37.30
2019-04-07T14:41:37.849Z,38.40
2019-04-07T14:44:41.208Z,39.10
2019-04-07T14:47:49.959Z,38.60
2019-04-07T14:50:42.819Z,38.00
2019-04-07T14:53:33.433Z,38.10
2019-04-07T14:56:46.746Z,38.00
2019-04-07T14:59:49.659Z,37.60
2019-04-07T15:02:26.505Z,37.20
2019-04-07T15:05:23.252Z,36.10
2019-04-07T15:08:03.244Z,34.90
2019-04-07T15:10:50.236Z,33.40
2019-04-07T15:13:29.378Z,32.70
2019-04-07T15:16:06.826Z,33.20
2019-04-07T15:18:44.628Z,33.80
2019-04-07T15:21:22.177Z,34.30
2019-04-07T15:24:04.078Z,34.60
2019-04-07T15:26:37.861Z,35.00
2019-04-07T15:29:15.758Z,35.20
2019-04-07T15:31:53.146Z,35.30
2019-04-07T15:34:30.561Z,35.20
2019-04-07T15:37:08.130Z,35.00
2019-04-07T15:39:45.918Z,35.10
2019-04-07T15:42:36.026Z,34.90
2019-04-07T15:45:01.150Z,34.20
2019-04-07T15:47:39.206Z,33.10
2019-04-07T15:50:16.264Z,32.60
2019-04-07T15:52:54.147Z,32.80
2019-04-07T15:55:45.936Z,33.00
2019-04-07T15:58:09.594Z,33.10
2019-04-07T16:00:48.607Z,33.20
2019-04-07T16:03:25.404Z,33.10
2019-04-07T16:06:03.496Z,33.20
2019-04-07T16:08:40.598Z,33.20
2019-04-07T16:11:18.973Z,33.10
2019-04-07T16:13:55.798Z,33.00
2019-04-07T16:16:33.551Z,32.90
2019-04-07T16:19:17.546Z,32.80
2019-04-07T16:21:49.406Z,32.70
2019-04-07T16:24:27.017Z,32.70
2019-04-07T16:27:07.633Z,32.60
2019-04-07T16:29:46.180Z,32.40
2019-04-07T16:32:22.100Z,32.30
2019-04-07T16:35:14.913Z,32.00
2019-04-07T16:37:37.785Z,31.80
2019-04-07T16:40:15.451Z,31.50
2019-04-07T16:43:04.427Z,31.00
2019-04-07T16:45:30.535Z,30.60
2019-04-07T16:48:08.991Z,30.20
2019-04-07T16:50:46.397Z,29.80
2019-04-07T16:53:23.192Z,29.60
2019-04-07T16:56:00.970Z,29.30
2019-04-07T16:58:39.970Z,29.00
2019-04-07T17:01:16.146Z,28.80
2019-04-07T17:03:54.278Z,28.70
2019-04-07T17:06:34.704Z,28.50
2019-04-07T17:09:11.009Z,28.10
2019-04-07T17:11:47.908Z,27.80
2019-04-07T17:14:25.754Z,27.40
2019-04-07T17:17:03.659Z,27.00
2019-04-07T17:19:40.517Z,26.60
2019-04-07T17:22:18.158Z,26.10
2019-04-07T17:24:58.238Z,25.70
2019-04-07T17:27:33.130Z,25.20
2019-04-07T17:30:12.273Z,24.80
2019-04-07T17:32:51.267Z,24.40
2019-04-07T17:35:27.345Z,23.90
2019-04-07T17:38:06.697Z,23.40
2019-04-07T17:40:49.516Z,23.00
2019-04-07T17:43:53.440Z,22.50
2019-04-07T17:47:01.016Z,22.10
2019-04-07T17:49:59.225Z,21.40
2019-04-07T17:52:44.472Z,20.90
2019-04-07T17:55:42.133Z,20.30
2019-04-07T17:58:38.127Z,19.90
2019-04-07T18:01:47.914Z,19.40
2019-04-07T18:04:36.375Z,19.00
2019-04-07T18:07:35.798Z,18.60
2019-04-07T18:10:48.685Z,18.30
2019-04-07T18:13:57.454Z,18.00
2019-04-07T18:17:00.739Z,17.70
2019-04-07T18:20:14.067Z,17.40
2019-04-07T18:23:12.755Z,17.20
2019-04-07T18:26:14.325Z,17.00
2019-04-07T18:29:02.530Z,16.80
2019-04-07T18:31:48.923Z,16.60
2019-04-07T18:34:35.403Z,16.50
2019-04-07T18:37:32.431Z,16.40
2019-04-07T18:40:37.849Z,16.20
2019-04-07T18:43:23.390Z,16.10
2019-04-07T18:46:33.476Z,16.00
2019-04-07T18:49:29.483Z,15.90
2019-04-07T18:52:28.856Z,15.70
2019-04-07T18:55:28.496Z,15.60
2019-04-07T18:58:25.564Z,15.40
2019-04-07T19:01:24.385Z,15.30
2019-04-07T19:04:12.863Z,15.20
2019-04-07T19:06:56.575Z,15.10
2019-04-07T19:09:45.584Z,15.00
2019-04-07T19:12:43.123Z,14.90
2019-04-07T19:15:31.309Z,14.80
2019-04-07T19:18:43.809Z,14.70
2019-04-07T19:21:45.079Z,14.60
2019-04-07T19:24:51.738Z,14.50
2019-04-07T19:27:44.804Z,14.40
2019-04-07T19:30:46.810Z,14.30
2019-04-07T19:33:42.156Z,14.20
2019-04-07T19:36:33.651Z,14.20
2019-04-07T19:39:27.215Z,14.10
2019-04-07T19:42:18.023Z,14.10
2019-04-07T19:45:14.154Z,14.10
2019-04-07T19:48:11.463Z,14.10
2019-04-07T19:51:07.183Z,14.10
2019-04-07T19:54:13.597Z,14.10
2019-04-07T19:57:09.551Z,14.10
2019-04-07T19:59:57.076Z,14.00
2019-04-07T20:02:49.956Z,13.90
2019-04-07T20:05:51.959Z,13.90
2019-04-07T20:08:45.916Z,13.80
2019-04-07T20:11:48.085Z,13.70
2019-04-07T20:14:55.497Z,13.60
2019-04-07T20:17:57.184Z,13.50
2019-04-07T20:21:07.923Z,13.50
2019-04-07T20:23:54.302Z,13.40
2019-04-07T20:26:44.902Z,13.30
2019-04-07T20:29:41.567Z,13.30
2019-04-07T20:32:39.079Z,13.30
2019-04-07T20:35:34.999Z,13.20
2019-04-07T20:38:30.598Z,13.20
2019-04-07T20:41:26.743Z,13.10
2019-04-07T20:44:29.567Z,13.00
2019-04-07T20:47:26.674Z,12.90
2019-04-07T20:50:29.250Z,12.80
2019-04-07T20:53:28.313Z,12.70
2019-04-07T20:56:32.008Z,12.60
2019-04-07T20:59:15.342Z,12.60
2019-04-07T21:02:12.704Z,12.60
2019-04-07T21:05:07.622Z,12.60
2019-04-07T21:08:13.384Z,12.60
2019-04-07T21:11:15.849Z,12.60
2019-04-07T21:14:17.339Z,12.60
2019-04-07T21:17:19.277Z,12.50
2019-04-07T21:20:10.813Z,12.60
2019-04-07T21:22:56.162Z,12.60
2019-04-07T21:25:45.022Z,12.60
2019-04-07T21:28:44.142Z,12.70
2019-04-07T21:31:38.649Z,12.70
2019-04-07T21:34:30.582Z,12.70
2019-04-07T21:37:28.928Z,12.70
2019-04-07T21:40:14.327Z,12.60
2019-04-07T21:43:16.880Z,12.60
2019-04-07T21:46:20.290Z,12.50
2019-04-07T21:49:05.500Z,12.40
2019-04-07T21:51:56.884Z,12.30
2019-04-07T21:54:48.308Z,12.30
2019-04-07T21:57:35.000Z,12.20
2019-04-07T22:00:32.881Z,12.10
2019-04-07T22:03:24.076Z,12.10
2019-04-07T22:06:16.495Z,11.90
2019-04-07T22:09:16.634Z,11.80
2019-04-07T22:11:54.628Z,11.80
2019-04-07T22:14:30.490Z,11.70
2019-04-07T22:17:07.392Z,11.60
2019-04-07T22:19:46.575Z,11.60
2019-04-07T22:22:24.105Z,11.50
2019-04-07T22:25:00.066Z,11.50
2019-04-07T22:27:37.554Z,11.50
2019-04-07T22:30:15.032Z,11.40
2019-04-07T22:32:53.095Z,11.40
2019-04-07T22:35:30.078Z,11.40
2019-04-07T22:38:07.627Z,11.30
2019-04-07T22:40:45.810Z,11.30
2019-04-07T22:43:22.955Z,11.30
2019-04-07T22:46:07.811Z,11.30
2019-04-07T22:48:38.476Z,11.20
2019-04-07T22:51:15.240Z,11.20
2019-04-07T22:53:56.166Z,11.20
2019-04-07T22:56:31.090Z,11.20
2019-04-07T22:59:10.031Z,11.10
2019-04-07T23:01:45.406Z,11.10
2019-04-07T23:04:22.919Z,11.10
2019-04-07T23:07:00.842Z,11.00
2019-04-07T23:09:37.979Z,11.00
2019-04-07T23:12:15.485Z,11.00
2019-04-07T23:14:53.134Z,10.90
2019-04-07T23:17:30.563Z,10.90
2019-04-07T23:20:08.455Z,10.90
2019-04-07T23:22:46.652Z,10.80
2019-04-07T23:25:23.499Z,10.80
2019-04-07T23:28:01.045Z,10.80
2019-04-07T23:30:38.544Z,10.80
2019-04-07T23:33:16.079Z,10.70
2019-04-07T23:35:53.593Z,10.70
2019-04-07T23:38:33.639Z,10.70
2019-04-07T23:41:09.562Z,10.60
2019-04-07T23:43:46.184Z,10.60
2019-04-07T23:46:25.894Z,10.50
2019-04-07T23:49:01.509Z,10.50
2019-04-07T23:51:39.287Z,10.40
2019-04-07T23:54:16.641Z,10.40
2019-04-07T23:56:54.199Z,10.40
2019-04-07T23:59:32.548Z,10.40
